createdAt,value
2022-12-09T00:00:02.338Z,4.56
2022-12-09T00:02:51.351Z,4.55
2022-12-09T00:05:18.131Z,4.56
2022-12-09T00:07:44.829Z,4.59
2022-12-09T00:10:12.425Z,4.57
2022-12-09T00:12:39.300Z,4.58
2022-12-09T00:15:06.352Z,4.56
2022-12-09T00:17:33.176Z,4.52
2022-12-09T00:19:59.639Z,4.46
2022-12-09T00:22:26.957Z,4.38
2022-12-09T00:24:53.540Z,4.31
2022-12-09T00:27:20.166Z,4.24
2022-12-09T00:29:46.893Z,4.21
2022-12-09T00:32:13.645Z,4.21
2022-12-09T00:34:41.675Z,4.27
2022-12-09T00:37:08.172Z,4.29
2022-12-09T00:39:34.577Z,4.28
2022-12-09T00:42:00.988Z,4.21
2022-12-09T00:44:27.963Z,4.18
2022-12-09T00:46:54.484Z,4.18
2022-12-09T00:49:21.306Z,4.23
2022-12-09T00:51:47.866Z,4.27
2022-12-09T00:54:14.425Z,4.27
2022-12-09T00:56:40.951Z,4.24
2022-12-09T00:59:07.546Z,4.20
2022-12-09T01:01:34.089Z,4.17
2022-12-09T01:04:01.716Z,4.16
2022-12-09T01:06:28.283Z,4.08
2022-12-09T01:08:55.263Z,4.03
2022-12-09T01:11:27.204Z,4.04
2022-12-09T01:13:57.009Z,3.95
2022-12-09T01:16:25.226Z,3.89
2022-12-09T01:18:53.312Z,3.87
2022-12-09T01:21:19.901Z,3.84
2022-12-09T01:23:46.458Z,3.85
2022-12-09T01:26:12.928Z,3.91
2022-12-09T01:28:40.191Z,3.96
2022-12-09T01:31:12.366Z,3.90
2022-12-09T01:33:39.425Z,3.88
2022-12-09T01:36:09.765Z,3.90
2022-12-09T01:38:36.369Z,3.92
2022-12-09T01:41:05.542Z,3.95
2022-12-09T01:43:32.411Z,4.01
2022-12-09T01:45:58.937Z,4.01
2022-12-09T01:48:29.288Z,4.03
2022-12-09T01:50:59.022Z,4.03
2022-12-09T01:53:28.060Z,4.04
2022-12-09T01:55:57.518Z,4.06
2022-12-09T01:58:24.673Z,4.07
2022-12-09T02:00:52.160Z,4.08
2022-12-09T02:03:20.051Z,4.11
2022-12-09T02:05:47.372Z,4.18
2022-12-09T02:08:17.964Z,4.24
2022-12-09T02:11:12.593Z,4.28
2022-12-09T02:13:48.564Z,4.28
2022-12-09T02:16:19.401Z,4.24
2022-12-09T02:19:18.930Z,4.21
2022-12-09T02:21:54.377Z,4.19
2022-12-09T02:24:48.153Z,4.19
2022-12-09T02:27:18.496Z,4.22
2022-12-09T02:30:26.764Z,4.23
2022-12-09T02:33:45.108Z,4.20
2022-12-09T02:36:15.242Z,4.20
2022-12-09T02:38:43.218Z,4.21
2022-12-09T02:41:13.265Z,4.23
2022-12-09T02:43:50.363Z,4.21
2022-12-09T02:46:20.149Z,4.21
2022-12-09T02:48:55.962Z,4.23
2022-12-09T02:51:24.617Z,4.26
2022-12-09T02:53:54.283Z,4.29
2022-12-09T02:56:22.337Z,4.31
2022-12-09T02:58:49.087Z,4.29
2022-12-09T03:01:31.862Z,4.34
2022-12-09T03:03:58.812Z,4.37
2022-12-09T03:06:30.664Z,4.39
2022-12-09T03:09:07.237Z,4.38
2022-12-09T03:11:34.352Z,4.39
2022-12-09T03:14:17.016Z,4.40
2022-12-09T03:17:00.297Z,4.36
2022-12-09T03:19:42.424Z,4.39
2022-12-09T03:22:16.519Z,4.42
2022-12-09T03:24:59.965Z,4.43
2022-12-09T03:27:33.258Z,4.46
2022-12-09T03:30:01.585Z,4.45
2022-12-09T03:32:28.496Z,4.47
2022-12-09T03:35:01.148Z,4.47
2022-12-09T03:37:27.720Z,4.43
2022-12-09T03:39:54.899Z,4.45
2022-12-09T03:42:25.869Z,4.49
2022-12-09T03:45:12.280Z,4.51
2022-12-09T03:47:38.995Z,4.51
2022-12-09T03:50:07.239Z,4.52
2022-12-09T03:52:44.921Z,4.51
2022-12-09T03:55:46.079Z,4.49
2022-12-09T03:58:13.177Z,4.51
2022-12-09T04:00:40.008Z,4.48
2022-12-09T04:03:07.157Z,4.45
2022-12-09T04:05:34.417Z,4.44
2022-12-09T04:08:01.249Z,4.42
2022-12-09T04:10:27.747Z,4.42
2022-12-09T04:12:54.446Z,4.40
2022-12-09T04:15:20.923Z,4.38
2022-12-09T04:17:47.633Z,4.35
2022-12-09T04:20:14.862Z,4.29
2022-12-09T04:22:42.140Z,4.27
2022-12-09T04:25:09.397Z,4.24
2022-12-09T04:27:36.526Z,4.23
2022-12-09T04:30:04.283Z,4.21
2022-12-09T04:32:32.895Z,4.14
2022-12-09T04:34:59.381Z,4.11
2022-12-09T04:37:25.786Z,4.11
2022-12-09T04:39:52.098Z,4.13
2022-12-09T04:42:18.471Z,4.12
2022-12-09T04:44:44.811Z,4.05
2022-12-09T04:47:11.305Z,4.01
2022-12-09T04:49:38.289Z,3.98
2022-12-09T04:52:08.650Z,4.01
2022-12-09T04:54:35.626Z,4.07
2022-12-09T04:57:02.439Z,4.13
2022-12-09T04:59:30.931Z,4.19
2022-12-09T05:01:57.402Z,4.25
2022-12-09T05:04:24.413Z,4.32
2022-12-09T05:06:51.512Z,4.38
2022-12-09T05:09:18.949Z,4.35
2022-12-09T05:11:45.911Z,4.29
2022-12-09T05:14:13.656Z,4.33
2022-12-09T05:16:40.512Z,4.33
2022-12-09T05:19:07.256Z,4.33
2022-12-09T05:21:34.070Z,4.38
2022-12-09T05:24:03.850Z,4.42
2022-12-09T05:26:30.623Z,4.44
2022-12-09T05:28:57.293Z,4.45
2022-12-09T05:31:24.412Z,4.48
2022-12-09T05:33:52.212Z,4.49
2022-12-09T05:36:23.564Z,4.52
2022-12-09T05:38:50.829Z,4.55
2022-12-09T05:41:18.428Z,4.56
2022-12-09T05:43:45.809Z,4.56
2022-12-09T05:46:13.684Z,4.56
2022-12-09T05:48:40.590Z,4.54
2022-12-09T05:51:11.151Z,4.54
2022-12-09T05:53:37.942Z,4.56
2022-12-09T05:56:04.895Z,4.57
2022-12-09T05:58:31.513Z,4.56
2022-12-09T06:01:05.616Z,4.57
2022-12-09T06:03:32.282Z,4.53
2022-12-09T06:05:59.137Z,4.52
2022-12-09T06:08:26.139Z,4.52
2022-12-09T06:10:53.088Z,4.51
2022-12-09T06:13:19.523Z,4.51
2022-12-09T06:15:46.155Z,4.53
2022-12-09T06:18:13.130Z,4.57
2022-12-09T06:20:40.632Z,4.61
2022-12-09T06:23:07.264Z,4.62
2022-12-09T06:25:34.332Z,4.63
2022-12-09T06:28:00.871Z,4.67
2022-12-09T06:30:27.468Z,4.67
2022-12-09T06:32:54.315Z,4.66
2022-12-09T06:35:21.158Z,4.63
2022-12-09T06:37:52.226Z,4.59
2022-12-09T06:40:21.537Z,4.52
2022-12-09T06:42:49.973Z,4.44
2022-12-09T06:45:20.551Z,4.38
2022-12-09T06:47:47.567Z,4.35
2022-12-09T06:50:14.655Z,4.26
2022-12-09T06:52:41.495Z,4.18
2022-12-09T06:55:09.890Z,4.14
2022-12-09T06:57:36.448Z,4.15
2022-12-09T07:00:04.878Z,4.19
2022-12-09T07:02:36.032Z,4.20
2022-12-09T07:05:04.950Z,4.18
2022-12-09T07:07:32.466Z,4.17
2022-12-09T07:10:02.903Z,4.18
2022-12-09T07:12:29.736Z,4.25
2022-12-09T07:14:56.422Z,4.35
2022-12-09T07:17:23.234Z,4.45
2022-12-09T07:19:49.954Z,4.57
2022-12-09T07:22:16.673Z,4.66
2022-12-09T07:24:43.880Z,4.73
2022-12-09T07:27:19.370Z,4.79
2022-12-09T07:29:46.449Z,4.83
2022-12-09T07:32:13.119Z,4.82
2022-12-09T07:34:39.796Z,4.78
2022-12-09T07:37:06.502Z,4.72
2022-12-09T07:39:32.996Z,4.71
2022-12-09T07:41:59.581Z,4.65
2022-12-09T07:44:28.462Z,4.57
2022-12-09T07:46:56.632Z,4.48
2022-12-09T07:49:24.128Z,4.43
2022-12-09T07:51:50.902Z,4.41
2022-12-09T07:54:19.133Z,4.39
2022-12-09T07:56:46.242Z,4.32
2022-12-09T07:59:14.628Z,4.26
2022-12-09T08:01:41.497Z,4.26
2022-12-09T08:04:08.317Z,4.28
2022-12-09T08:06:35.771Z,4.36
2022-12-09T08:09:06.133Z,4.44
2022-12-09T08:11:34.347Z,4.54
2022-12-09T08:14:12.277Z,4.62
2022-12-09T08:16:58.753Z,4.74
2022-12-09T08:19:31.275Z,4.81
2022-12-09T08:22:12.978Z,4.85
2022-12-09T08:24:52.283Z,4.91
2022-12-09T08:27:36.701Z,4.95
2022-12-09T08:30:10.949Z,4.99
2022-12-09T08:32:42.555Z,5.04
2022-12-09T08:35:14.575Z,5.07
2022-12-09T08:37:45.229Z,5.12
2022-12-09T08:40:12.806Z,5.18
2022-12-09T08:42:40.012Z,5.26
2022-12-09T08:45:09.318Z,5.30
2022-12-09T08:47:36.370Z,5.38
2022-12-09T08:50:03.993Z,5.45
2022-12-09T08:52:38.703Z,5.47
2022-12-09T08:55:09.420Z,5.50
2022-12-09T08:57:37.840Z,5.49
2022-12-09T09:04:28.859Z,5.49
2022-12-09T09:07:06.708Z,5.66
2022-12-09T09:09:38.202Z,5.95
2022-12-09T09:12:08.884Z,6.18
2022-12-09T09:14:40.443Z,6.51
2022-12-09T09:17:07.909Z,6.82
2022-12-09T09:19:35.164Z,7.11
2022-12-09T09:22:02.091Z,7.38
2022-12-09T09:24:28.852Z,7.55
2022-12-09T09:26:56.056Z,7.64
2022-12-09T09:29:23.703Z,7.78
2022-12-09T09:31:53.499Z,7.94
2022-12-09T09:34:20.858Z,8.08
2022-12-09T09:36:48.339Z,8.24
2022-12-09T09:39:15.283Z,8.36
2022-12-09T09:41:52.657Z,8.44
2022-12-09T09:44:28.295Z,8.43
2022-12-09T09:46:56.439Z,8.45
2022-12-09T09:49:30.007Z,8.49
2022-12-09T09:51:57.016Z,8.52
2022-12-09T09:54:23.678Z,8.68
2022-12-09T09:56:55.948Z,8.97
2022-12-09T09:59:56.749Z,9.22
2022-12-09T10:02:52.384Z,9.45
2022-12-09T10:06:18.119Z,9.57
2022-12-09T10:08:55.098Z,9.63
2022-12-09T10:11:31.692Z,9.64
2022-12-09T10:14:17.668Z,9.58
2022-12-09T10:17:02.407Z,9.65
2022-12-09T10:19:39.334Z,9.73
2022-12-09T10:22:13.641Z,9.82
2022-12-09T10:24:51.756Z,9.81
2022-12-09T10:27:27.786Z,9.90
2022-12-09T10:29:59.078Z,10.00
2022-12-09T10:32:29.721Z,9.92
2022-12-09T10:34:57.141Z,9.87
2022-12-09T10:37:30.943Z,9.75
2022-12-09T10:40:38.255Z,9.69
2022-12-09T10:43:34.474Z,9.75
2022-12-09T10:46:21.078Z,9.75
2022-12-09T10:48:48.792Z,9.73
2022-12-09T10:51:27.399Z,9.67
2022-12-09T10:53:58.751Z,9.64
2022-12-09T10:56:31.545Z,9.57
2022-12-09T10:59:17.995Z,9.53
2022-12-09T11:01:55.090Z,9.48
2022-12-09T11:04:37.212Z,9.41
2022-12-09T11:07:07.002Z,9.40
2022-12-09T11:09:36.151Z,9.41
2022-12-09T11:12:05.840Z,9.56
2022-12-09T11:14:41.360Z,9.68
2022-12-09T11:17:15.563Z,9.80
2022-12-09T11:19:45.537Z,9.90
2022-12-09T11:22:38.326Z,10.14
2022-12-09T11:25:10.967Z,10.31
2022-12-09T11:27:52.283Z,10.36
2022-12-09T11:30:23.339Z,10.30
2022-12-09T11:33:05.172Z,10.14
2022-12-09T11:35:45.191Z,9.79
2022-12-09T11:38:33.567Z,9.44
2022-12-09T11:41:09.160Z,9.14
2022-12-09T11:43:38.787Z,8.96
2022-12-09T11:46:19.835Z,9.04
2022-12-09T11:48:52.339Z,9.16
2022-12-09T11:51:25.306Z,9.15
2022-12-09T11:54:01.695Z,9.20
2022-12-09T11:56:29.765Z,9.25
2022-12-09T11:59:01.170Z,9.36
2022-12-09T12:01:39.638Z,9.35
2022-12-09T12:04:09.623Z,9.25
2022-12-09T12:06:58.530Z,9.00
2022-12-09T12:09:37.458Z,8.65
2022-12-09T12:12:16.151Z,8.35
2022-12-09T12:14:43.299Z,8.12
2022-12-09T12:17:15.745Z,7.90
2022-12-09T12:19:44.674Z,7.67
2022-12-09T12:22:10.985Z,7.47
2022-12-09T12:24:46.408Z,7.32
2022-12-09T12:27:51.278Z,7.24
2022-12-09T12:30:20.522Z,7.07
2022-12-09T12:36:10.423Z,6.90
2022-12-09T12:38:59.667Z,6.80
2022-12-09T12:41:50.286Z,6.74
2022-12-09T12:45:06.616Z,6.76
2022-12-09T12:47:44.369Z,6.82
2022-12-09T12:50:19.815Z,6.78
2022-12-09T12:53:00.888Z,6.69
2022-12-09T12:55:51.914Z,6.61
2022-12-09T12:58:56.285Z,6.51
2022-12-09T13:01:47.546Z,6.42
2022-12-09T13:04:20.281Z,6.41
2022-12-09T13:07:10.212Z,6.39
2022-12-09T13:09:52.188Z,6.40
2022-12-09T13:12:48.574Z,6.39
2022-12-09T13:15:17.696Z,6.39
2022-12-09T13:17:45.975Z,6.43
2022-12-09T13:20:16.375Z,6.40
2022-12-09T13:22:51.049Z,6.35
2022-12-09T13:25:23.933Z,6.45
2022-12-09T13:28:21.669Z,6.47
2022-12-09T13:30:54.526Z,6.49
2022-12-09T13:34:08.321Z,6.47
2022-12-09T13:36:41.045Z,6.41
2022-12-09T13:39:12.277Z,6.44
2022-12-09T13:41:59.909Z,6.42
2022-12-09T13:44:33.928Z,6.34
2022-12-09T13:47:13.314Z,6.32
2022-12-09T13:49:39.921Z,6.24
2022-12-09T13:52:06.354Z,6.14
2022-12-09T13:54:34.054Z,6.09
2022-12-09T13:57:12.853Z,6.09
2022-12-09T13:59:44.201Z,6.05
2022-12-09T14:02:39.883Z,6.01
2022-12-09T14:05:12.066Z,5.99
2022-12-09T14:07:53.067Z,5.96
2022-12-09T14:10:47.059Z,5.90
2022-12-09T14:13:34.623Z,5.81
2022-12-09T14:16:16.253Z,5.72
2022-12-09T14:18:43.822Z,5.69
2022-12-09T14:21:19.796Z,5.65
2022-12-09T14:24:08.629Z,5.57
2022-12-09T14:26:41.182Z,5.48
2022-12-09T14:29:07.569Z,5.44
2022-12-09T14:31:45.923Z,5.40
2022-12-09T14:34:34.109Z,5.33
2022-12-09T14:37:30.122Z,5.30
2022-12-09T14:40:04.670Z,5.21
2022-12-09T14:42:48.377Z,5.15
2022-12-09T14:45:36.344Z,5.08
2022-12-09T14:48:08.967Z,5.00
2022-12-09T14:50:38.000Z,4.96
2022-12-09T14:53:08.172Z,4.87
2022-12-09T14:55:39.885Z,4.89
2022-12-09T14:58:06.482Z,4.94
2022-12-09T15:00:40.057Z,4.94
2022-12-09T15:03:39.405Z,4.86
2022-12-09T15:06:10.602Z,4.79
2022-12-09T15:08:39.782Z,4.78
2022-12-09T15:11:17.680Z,4.80
2022-12-09T15:13:46.831Z,4.80
2022-12-09T15:16:15.746Z,4.78
2022-12-09T15:18:43.685Z,4.79
2022-12-09T15:21:25.244Z,4.74
2022-12-09T15:23:51.795Z,4.67
2022-12-09T15:26:27.103Z,4.58
2022-12-09T15:28:55.754Z,4.57
2022-12-09T15:31:27.720Z,4.50
2022-12-09T15:33:56.717Z,4.46
2022-12-09T15:36:26.668Z,4.50
2022-12-09T15:39:00.031Z,4.53
2022-12-09T15:41:49.975Z,4.46
2022-12-09T15:44:19.532Z,4.34
2022-12-09T15:46:48.313Z,4.20
2022-12-09T15:49:18.258Z,4.13
2022-12-09T15:51:45.954Z,4.06
2022-12-09T15:54:17.936Z,4.04
2022-12-09T15:56:55.539Z,4.08
2022-12-09T15:59:39.295Z,4.07
2022-12-09T16:02:09.399Z,4.11
2022-12-09T16:04:44.212Z,4.12
2022-12-09T16:07:12.365Z,4.12
2022-12-09T16:09:38.972Z,4.11
2022-12-09T16:12:29.156Z,4.05
2022-12-09T16:14:55.530Z,4.09
2022-12-09T16:17:43.548Z,4.11
2022-12-09T16:20:34.493Z,4.09
2022-12-09T16:23:02.383Z,4.06
2022-12-09T16:25:35.285Z,4.06
2022-12-09T16:28:05.204Z,4.08
2022-12-09T16:30:33.804Z,4.14
2022-12-09T16:33:04.215Z,4.16
2022-12-09T16:35:37.378Z,4.21
2022-12-09T16:38:09.727Z,4.13
2022-12-09T16:40:57.049Z,4.03
2022-12-09T16:43:24.665Z,3.94
2022-12-09T16:45:56.739Z,3.90
2022-12-09T16:48:25.695Z,3.84
2022-12-09T16:50:55.150Z,3.82
2022-12-09T16:53:45.720Z,3.75
2022-12-09T16:56:18.164Z,3.66
2022-12-09T16:58:44.881Z,3.58
2022-12-09T17:01:15.048Z,3.54
2022-12-09T17:03:53.614Z,3.56
2022-12-09T17:06:20.346Z,3.56
2022-12-09T17:08:47.225Z,3.52
2022-12-09T17:11:16.091Z,3.52
2022-12-09T17:13:42.565Z,3.55
2022-12-09T17:16:09.114Z,3.55
2022-12-09T17:18:35.612Z,3.53
2022-12-09T17:21:09.565Z,3.54
2022-12-09T17:23:39.614Z,3.60
2022-12-09T17:26:13.131Z,3.64
2022-12-09T17:28:40.245Z,3.72
2022-12-09T17:31:12.819Z,3.74
2022-12-09T17:33:39.298Z,3.78
2022-12-09T17:36:06.768Z,3.84
2022-12-09T17:38:36.513Z,3.84
2022-12-09T17:41:09.210Z,3.80
2022-12-09T17:43:36.348Z,3.77
2022-12-09T17:46:04.457Z,3.71
2022-12-09T17:48:32.090Z,3.70
2022-12-09T17:50:58.775Z,3.67
2022-12-09T17:53:25.117Z,3.65
2022-12-09T17:55:51.665Z,3.68
2022-12-09T17:58:18.134Z,3.68
2022-12-09T18:00:45.497Z,3.66
2022-12-09T18:03:17.791Z,3.58
2022-12-09T18:05:48.943Z,3.53
2022-12-09T18:08:15.531Z,3.47
2022-12-09T18:10:43.452Z,3.49
2022-12-09T18:13:09.768Z,3.46
2022-12-09T18:15:36.503Z,3.50
2022-12-09T18:18:03.033Z,3.57
2022-12-09T18:20:29.657Z,3.63
2022-12-09T18:22:56.400Z,3.65
2022-12-09T18:25:22.906Z,3.62
2022-12-09T18:27:49.995Z,3.59
2022-12-09T18:30:16.408Z,3.54
2022-12-09T18:32:42.843Z,3.52
2022-12-09T18:35:09.429Z,3.50
2022-12-09T18:37:35.873Z,3.49
2022-12-09T18:40:03.478Z,3.44
2022-12-09T18:42:29.837Z,3.39
2022-12-09T18:44:59.078Z,3.40
2022-12-09T18:47:25.523Z,3.33
2022-12-09T18:49:52.087Z,3.29
2022-12-09T18:52:18.575Z,3.22
2022-12-09T18:54:46.972Z,3.15
2022-12-09T18:57:13.523Z,3.11
2022-12-09T18:59:39.964Z,3.09
2022-12-09T19:02:09.894Z,3.02
2022-12-09T19:04:36.372Z,3.01
2022-12-09T19:07:02.724Z,3.03
2022-12-09T19:09:32.773Z,3.05
2022-12-09T19:12:23.146Z,3.15
2022-12-09T19:14:47.784Z,3.18
2022-12-09T19:17:14.141Z,3.20
2022-12-09T19:19:40.840Z,3.19
2022-12-09T19:22:07.597Z,3.14
2022-12-09T19:24:37.307Z,3.11
2022-12-09T19:27:06.304Z,3.09
2022-12-09T19:29:32.658Z,3.07
2022-12-09T19:31:59.373Z,2.99
2022-12-09T19:34:27.946Z,3.00
2022-12-09T19:36:57.363Z,3.05
2022-12-09T19:39:26.099Z,3.07
2022-12-09T19:41:52.406Z,2.99
2022-12-09T19:44:37.445Z,2.95
2022-12-09T19:47:05.923Z,2.97
2022-12-09T19:49:32.527Z,2.97
2022-12-09T19:51:59.261Z,2.97
2022-12-09T19:54:28.680Z,2.99
2022-12-09T19:56:56.225Z,3.01
2022-12-09T19:59:22.577Z,3.02
2022-12-09T20:01:49.062Z,2.99
2022-12-09T20:04:51.057Z,2.99
2022-12-09T20:07:18.935Z,3.08
2022-12-09T20:09:45.389Z,3.13
2022-12-09T20:12:11.872Z,3.21
2022-12-09T20:14:38.790Z,3.29
2022-12-09T20:17:05.306Z,3.26
2022-12-09T20:19:31.806Z,3.17
2022-12-09T20:21:58.402Z,3.05
2022-12-09T20:24:26.147Z,2.99
2022-12-09T20:26:52.530Z,2.97
2022-12-09T20:29:19.068Z,2.93
2022-12-09T20:31:45.900Z,2.92
2022-12-09T20:34:15.389Z,2.93
2022-12-09T20:36:43.390Z,2.93
2022-12-09T20:39:14.213Z,2.92
2022-12-09T20:41:41.593Z,2.91
2022-12-09T20:44:09.454Z,2.89
2022-12-09T20:46:36.049Z,2.93
2022-12-09T20:49:02.652Z,2.99
2022-12-09T20:51:34.375Z,2.99
2022-12-09T20:54:01.236Z,3.02
2022-12-09T20:56:29.171Z,3.05
2022-12-09T20:58:56.249Z,3.05
2022-12-09T21:01:28.299Z,3.08
2022-12-09T21:03:55.559Z,3.13
2022-12-09T21:06:25.106Z,3.09
2022-12-09T21:08:53.087Z,3.11
2022-12-09T21:11:21.617Z,3.14
2022-12-09T21:13:50.242Z,3.15
2022-12-09T21:16:19.743Z,3.14
2022-12-09T21:18:47.488Z,3.17
2022-12-09T21:21:14.424Z,3.24
2022-12-09T21:23:40.891Z,3.25
2022-12-09T21:26:10.630Z,3.19
2022-12-09T21:28:38.132Z,3.16
2022-12-09T21:31:09.517Z,3.13
2022-12-09T21:33:36.315Z,3.01
2022-12-09T21:36:07.120Z,3.00
2022-12-09T21:38:34.788Z,2.99
2022-12-09T21:41:06.959Z,3.00
2022-12-09T21:43:34.853Z,2.99
2022-12-09T21:46:07.486Z,2.99
2022-12-09T21:48:33.976Z,2.99
2022-12-09T21:51:02.057Z,2.96
2022-12-09T21:53:29.530Z,2.88
2022-12-09T21:56:06.665Z,2.88
2022-12-09T21:58:34.321Z,2.94
2022-12-09T22:01:08.667Z,2.95
2022-12-09T22:03:36.136Z,2.92
2022-12-09T22:06:03.422Z,2.96
2022-12-09T22:08:29.843Z,3.00
2022-12-09T22:10:57.682Z,3.08
2022-12-09T22:13:25.057Z,3.17
2022-12-09T22:15:51.512Z,3.25
2022-12-09T22:18:18.338Z,3.25
2022-12-09T22:23:32.774Z,3.16
2022-12-09T22:25:59.163Z,3.13
2022-12-09T22:28:25.483Z,3.08
2022-12-09T22:30:51.965Z,3.07
2022-12-09T22:33:18.417Z,3.04
2022-12-09T22:35:44.735Z,2.98
2022-12-09T22:38:14.563Z,2.97
2022-12-09T22:40:41.614Z,3.06
2022-12-09T22:43:08.117Z,3.14
2022-12-09T22:45:35.413Z,3.13
2022-12-09T22:48:02.076Z,3.18
2022-12-09T22:50:28.472Z,3.25
2022-12-09T22:52:55.414Z,3.25
2022-12-09T22:55:21.841Z,3.28
2022-12-09T22:57:48.236Z,3.28
2022-12-09T23:00:15.058Z,3.30
2022-12-09T23:02:41.545Z,3.22
2022-12-09T23:05:08.415Z,3.15
2022-12-09T23:07:35.009Z,3.15
2022-12-09T23:10:01.545Z,3.22
2022-12-09T23:12:27.932Z,3.28
2022-12-09T23:14:54.719Z,3.27
2022-12-09T23:17:21.146Z,3.25
2022-12-09T23:19:47.452Z,3.17
2022-12-09T23:22:14.103Z,3.13
2022-12-09T23:24:40.411Z,3.13
2022-12-09T23:27:06.733Z,3.18
2022-12-09T23:29:33.111Z,3.19
2022-12-09T23:31:59.407Z,3.16
2022-12-09T23:34:25.862Z,3.17
2022-12-09T23:36:52.266Z,3.21
2022-12-09T23:39:18.831Z,3.18
2022-12-09T23:41:45.339Z,3.17
2022-12-09T23:44:14.516Z,3.17
2022-12-09T23:46:41.206Z,3.21
2022-12-09T23:49:08.016Z,3.27
2022-12-09T23:51:36.013Z,3.23
2022-12-09T23:54:04.867Z,3.17
2022-12-09T23:56:34.979Z,3.15
2022-12-09T23:59:05.032Z,3.17
